sensor_id;sensor_type;location;lat;lon;timestamp;pressure;altitude;pressure_sealevel;temperature;humidity
8699;BME280;4386;51.236;6.742;2023-09-08T00:00:49;97209.72;;;23.58;49.45
8699;BME280;4386;51.236;6.742;2023-09-08T00:01:52;97210.22;;;23.60;49.59
8699;BME280;4386;51.236;6.742;2023-09-08T00:02:57;97209.97;;;23.61;49.81
8699;BME280;4386;51.236;6.742;2023-09-08T00:04:01;97209.16;;;23.61;49.43
8699;BME280;4386;51.236;6.742;2023-09-08T00:05:07;97207.25;;;23.61;49.77
8699;BME280;4386;51.236;6.742;2023-09-08T00:06:11;97210.78;;;23.62;49.71
8699;BME280;4386;51.236;6.742;2023-09-08T00:07:15;97212.34;;;23.63;49.72
8699;BME280;4386;51.236;6.742;2023-09-08T00:08:18;97212.34;;;23.63;49.78
8699;BME280;4386;51.236;6.742;2023-09-08T00:09:22;97212.34;;;23.63;49.76
8699;BME280;4386;51.236;6.742;2023-09-08T00:10:25;97209.66;;;23.63;49.95
8699;BME280;4386;51.236;6.742;2023-09-08T00:11:29;97212.34;;;23.63;49.88
8699;BME280;4386;51.236;6.742;2023-09-08T00:12:32;97217.19;;;23.66;50.00
8699;BME280;4386;51.236;6.742;2023-09-08T00:13:35;97213.41;;;23.67;49.85
8699;BME280;4386;51.236;6.742;2023-09-08T00:14:39;97209.59;;;23.68;49.79
8699;BME280;4386;51.236;6.742;2023-09-08T00:15:42;97216.63;;;23.69;49.75
8699;BME280;4386;51.236;6.742;2023-09-08T00:16:48;97215.00;;;23.68;49.79
8699;BME280;4386;51.236;6.742;2023-09-08T00:17:51;97214.22;;;23.67;50.16
8699;BME280;4386;51.236;6.742;2023-09-08T00:18:55;97212.59;;;23.66;49.78
8699;BME280;4386;51.236;6.742;2023-09-08T00:19:58;97216.41;;;23.65;50.22
8699;BME280;4386;51.236;6.742;2023-09-08T00:21:02;97208.56;;;23.64;50.51
8699;BME280;4386;51.236;6.742;2023-09-08T00:22:05;97209.38;;;23.64;50.41
8699;BME280;4386;51.236;6.742;2023-09-08T00:23:09;97208.06;;;23.62;50.45
8699;BME280;4386;51.236;6.742;2023-09-08T00:24:12;97214.56;;;23.61;50.50
8699;BME280;4386;51.236;6.742;2023-09-08T00:25:17;97217.25;;;23.61;50.80
8699;BME280;4386;51.236;6.742;2023-09-08T00:26:20;97228.06;;;23.61;50.86
8699;BME280;4386;51.236;6.742;2023-09-08T00:27:24;97218.34;;;23.60;50.92
8699;BME280;4386;51.236;6.742;2023-09-08T00:28:28;97222.16;;;23.59;50.83
8699;BME280;4386;51.236;6.742;2023-09-08T00:29:31;97218.94;;;23.57;50.99
8699;BME280;4386;51.236;6.742;2023-09-08T00:30:55;97211.94;;;23.56;51.23
8699;BME280;4386;51.236;6.742;2023-09-08T00:32:00;97220.53;;;23.58;51.06
8699;BME280;4386;51.236;6.742;2023-09-08T00:33:04;97207.03;;;23.58;51.10
8699;BME280;4386;51.236;6.742;2023-09-08T00:34:11;97212.44;;;23.58;51.21
8699;BME280;4386;51.236;6.742;2023-09-08T00:35:15;97207.84;;;23.58;51.17
8699;BME280;4386;51.236;6.742;2023-09-08T00:36:18;97211.34;;;23.59;51.26
8699;BME280;4386;51.236;6.742;2023-09-08T00:37:22;97207.53;;;23.60;50.89
8699;BME280;4386;51.236;6.742;2023-09-08T00:38:25;97211.59;;;23.62;50.95
8699;BME280;4386;51.236;6.742;2023-09-08T00:39:30;97200.97;;;23.66;50.80
8699;BME280;4386;51.236;6.742;2023-09-08T00:40:33;97209.31;;;23.69;50.94
8699;BME280;4386;51.236;6.742;2023-09-08T00:41:36;97209.84;;;23.71;50.73
8699;BME280;4386;51.236;6.742;2023-09-08T00:42:39;97197.13;;;23.72;50.91
8699;BME280;4386;51.236;6.742;2023-09-08T00:43:43;97198.47;;;23.69;50.91
8699;BME280;4386;51.236;6.742;2023-09-08T00:44:46;97207.41;;;23.70;50.96
8699;BME280;4386;51.236;6.742;2023-09-08T00:45:50;97206.59;;;23.69;50.95
8699;BME280;4386;51.236;6.742;2023-09-08T00:46:54;97216.06;;;23.72;51.04
8699;BME280;4386;51.236;6.742;2023-09-08T00:48:00;97206.00;;;23.72;50.86
8699;BME280;4386;51.236;6.742;2023-09-08T00:49:05;97209.75;;;23.76;50.81
8699;BME280;4386;51.236;6.742;2023-09-08T00:50:12;97210.56;;;23.77;50.90
8699;BME280;4386;51.236;6.742;2023-09-08T00:51:15;97209.47;;;23.78;50.81
8699;BME280;4386;51.236;6.742;2023-09-08T00:52:19;97208.09;;;23.80;50.80
8699;BME280;4386;51.236;6.742;2023-09-08T00:53:23;97211.28;;;23.82;50.81
8699;BME280;4386;51.236;6.742;2023-09-08T00:54:28;97205.59;;;23.84;50.66
8699;BME280;4386;51.236;6.742;2023-09-08T00:55:33;97202.59;;;23.85;50.86
8699;BME280;4386;51.236;6.742;2023-09-08T00:56:39;97201.81;;;23.85;50.72
8699;BME280;4386;51.236;6.742;2023-09-08T00:57:42;97199.88;;;23.85;50.82
8699;BME280;4386;51.236;6.742;2023-09-08T00:58:46;97196.69;;;23.83;50.90
8699;BME280;4386;51.236;6.742;2023-09-08T00:59:49;97197.50;;;23.84;51.04
8699;BME280;4386;51.236;6.742;2023-09-08T01:00:53;97208.31;;;23.84;51.07
8699;BME280;4386;51.236;6.742;2023-09-08T01:01:56;97191.28;;;23.83;51.08
8699;BME280;4386;51.236;6.742;2023-09-08T01:03:02;97195.88;;;23.83;51.20
8699;BME280;4386;51.236;6.742;2023-09-08T01:04:05;97207.22;;;23.85;51.23
8699;BME280;4386;51.236;6.742;2023-09-08T01:05:09;97199.88;;;23.85;51.42
8699;BME280;4386;51.236;6.742;2023-09-08T01:06:12;97199.09;;;23.85;51.27
8699;BME280;4386;51.236;6.742;2023-09-08T01:07:18;97198.28;;;23.84;51.41
8699;BME280;4386;51.236;6.742;2023-09-08T01:08:22;97195.88;;;23.83;51.37
8699;BME280;4386;51.236;6.742;2023-09-08T01:09:26;97192.88;;;23.84;51.17
8699;BME280;4386;51.236;6.742;2023-09-08T01:10:31;97189.38;;;23.84;51.36
8699;BME280;4386;51.236;6.742;2023-09-08T01:11:35;97193.69;;;23.85;51.46
8699;BME280;4386;51.236;6.742;2023-09-08T01:12:38;97187.97;;;23.86;51.39
8699;BME280;4386;51.236;6.742;2023-09-08T01:13:43;97186.09;;;23.87;51.39
8699;BME280;4386;51.236;6.742;2023-09-08T01:14:46;97184.19;;;23.88;51.49
8699;BME280;4386;51.236;6.742;2023-09-08T01:15:52;97192.31;;;23.88;51.43
8699;BME280;4386;51.236;6.742;2023-09-08T01:16:55;97189.28;;;23.89;51.38
8699;BME280;4386;51.236;6.742;2023-09-08T01:17:58;97189.28;;;23.89;51.31
8699;BME280;4386;51.236;6.742;2023-09-08T01:19:04;97185.00;;;23.88;51.08
8699;BME280;4386;51.236;6.742;2023-09-08T01:20:15;97189.28;;;23.89;51.11
8699;BME280;4386;51.236;6.742;2023-09-08T01:21:37;97189.28;;;23.89;51.29
8699;BME280;4386;51.236;6.742;2023-09-08T01:22:54;97179.59;;;23.88;51.49
8699;BME280;4386;51.236;6.742;2023-09-08T01:24:18;97179.88;;;23.86;51.63
8699;BME280;4386;51.236;6.742;2023-09-08T01:25:26;97178.56;;;23.84;51.36
8699;BME280;4386;51.236;6.742;2023-09-08T01:26:36;97177.47;;;23.85;51.51
8699;BME280;4386;51.236;6.742;2023-09-08T01:27:43;97176.34;;;23.86;51.38
8699;BME280;4386;51.236;6.742;2023-09-08T01:28:49;97172.06;;;23.85;51.47
8699;BME280;4386;51.236;6.742;2023-09-08T01:29:55;97175.84;;;23.84;51.44
8699;BME280;4386;51.236;6.742;2023-09-08T01:30:59;97173.16;;;23.84;51.66
8699;BME280;4386;51.236;6.742;2023-09-08T01:32:04;97169.94;;;23.82;51.63
8699;BME280;4386;51.236;6.742;2023-09-08T01:33:07;97171.84;;;23.81;51.99
8699;BME280;4386;51.236;6.742;2023-09-08T01:34:12;97168.59;;;23.79;51.66
8699;BME280;4386;51.236;6.742;2023-09-08T01:35:16;97173.19;;;23.79;51.96
8699;BME280;4386;51.236;6.742;2023-09-08T01:36:20;97175.91;;;23.79;52.00
8699;BME280;4386;51.236;6.742;2023-09-08T01:37:23;97175.41;;;23.77;51.81
8699;BME280;4386;51.236;6.742;2023-09-08T01:38:27;97171.38;;;23.74;52.18
8699;BME280;4386;51.236;6.742;2023-09-08T01:39:30;97162.53;;;23.69;52.43
8699;BME280;4386;51.236;6.742;2023-09-08T01:40:36;97163.91;;;23.66;52.66
8699;BME280;4386;51.236;6.742;2023-09-08T01:41:39;97172.31;;;23.65;52.66
8699;BME280;4386;51.236;6.742;2023-09-08T01:42:44;97176.13;;;23.64;52.57
8699;BME280;4386;51.236;6.742;2023-09-08T01:43:48;97168.50;;;23.66;52.60
8699;BME280;4386;51.236;6.742;2023-09-08T01:44:52;97169.31;;;23.66;52.61
8699;BME280;4386;51.236;6.742;2023-09-08T01:45:55;97163.09;;;23.66;52.50
8699;BME280;4386;51.236;6.742;2023-09-08T01:46:58;97166.34;;;23.68;52.30
8699;BME280;4386;51.236;6.742;2023-09-08T01:48:02;97162.53;;;23.69;52.34
8699;BME280;4386;51.236;6.742;2023-09-08T01:49:05;97154.94;;;23.71;52.46
8699;BME280;4386;51.236;6.742;2023-09-08T01:50:09;97153.31;;;23.70;52.76
8699;BME280;4386;51.236;6.742;2023-09-08T01:51:12;97157.13;;;23.69;52.96
8699;BME280;4386;51.236;6.742;2023-09-08T01:52:16;97150.09;;;23.68;52.71
8699;BME280;4386;51.236;6.742;2023-09-08T01:53:19;97142.50;;;23.70;52.43
8699;BME280;4386;51.236;6.742;2023-09-08T01:54:23;97155.75;;;23.71;52.48
8699;BME280;4386;51.236;6.742;2023-09-08T01:55:26;97150.34;;;23.71;52.79
8699;BME280;4386;51.236;6.742;2023-09-08T01:56:31;97147.91;;;23.70;52.53
8699;BME280;4386;51.236;6.742;2023-09-08T01:57:34;97149.53;;;23.71;52.61
8699;BME280;4386;51.236;6.742;2023-09-08T01:58:38;97146.31;;;23.69;52.53
8699;BME280;4386;51.236;6.742;2023-09-08T01:59:41;97147.91;;;23.70;52.73
8699;BME280;4386;51.236;6.742;2023-09-08T02:00:48;97147.91;;;23.70;52.60
8699;BME280;4386;51.236;6.742;2023-09-08T02:01:52;97150.63;;;23.70;52.58
8699;BME280;4386;51.236;6.742;2023-09-08T02:02:56;97149.81;;;23.69;52.59
8699;BME280;4386;51.236;6.742;2023-09-08T02:04:00;97154.94;;;23.71;52.47
8699;BME280;4386;51.236;6.742;2023-09-08T02:05:06;97151.16;;;23.72;52.34
8699;BME280;4386;51.236;6.742;2023-09-08T02:06:09;97144.63;;;23.73;52.47
8699;BME280;4386;51.236;6.742;2023-09-08T02:07:14;97147.31;;;23.73;52.49
8699;BME280;4386;51.236;6.742;2023-09-08T02:08:16;97149.44;;;23.76;52.35
8699;BME280;4386;51.236;6.742;2023-09-08T02:09:21;97151.38;;;23.75;52.36
8699;BME280;4386;51.236;6.742;2023-09-08T02:10:25;97146.75;;;23.76;52.35
8699;BME280;4386;51.236;6.742;2023-09-08T02:11:28;97144.34;;;23.74;52.20
8699;BME280;4386;51.236;6.742;2023-09-08T02:12:33;97141.63;;;23.74;52.20
8699;BME280;4386;51.236;6.742;2023-09-08T02:13:37;97142.72;;;23.73;51.87
8699;BME280;4386;51.236;6.742;2023-09-08T02:14:40;97158.94;;;23.73;51.81
8699;BME280;4386;51.236;6.742;2023-09-08T02:15:44;97151.16;;;23.72;51.90
8699;BME280;4386;51.236;6.742;2023-09-08T02:16:47;97146.31;;;23.69;51.79
8699;BME280;4386;51.236;6.742;2023-09-08T02:17:52;97152.28;;;23.66;51.83
8699;BME280;4386;51.236;6.742;2023-09-08T02:18:56;97149.56;;;23.66;51.62
8699;BME280;4386;51.236;6.742;2023-09-08T02:19:59;97143.41;;;23.65;51.71
8699;BME280;4386;51.236;6.742;2023-09-08T02:21:03;97150.69;;;23.65;51.73
8699;BME280;4386;51.236;6.742;2023-09-08T02:22:06;97145.28;;;23.65;51.74
8699;BME280;4386;51.236;6.742;2023-09-08T02:23:10;97150.69;;;23.65;51.49
8699;BME280;4386;51.236;6.742;2023-09-08T02:24:14;97139.06;;;23.64;51.68
8699;BME280;4386;51.236;6.742;2023-09-08T02:25:18;97145.28;;;23.65;51.54
8699;BME280;4386;51.236;6.742;2023-09-08T02:26:22;97139.88;;;23.65;51.55
8699;BME280;4386;51.236;6.742;2023-09-08T02:27:26;97149.06;;;23.64;51.45
8699;BME280;4386;51.236;6.742;2023-09-08T02:28:31;97147.47;;;23.63;51.59
8699;BME280;4386;51.236;6.742;2023-09-08T02:29:36;97149.66;;;23.61;51.68
8699;BME280;4386;51.236;6.742;2023-09-08T02:30:38;97144.25;;;23.61;51.61
8699;BME280;4386;51.236;6.742;2023-09-08T02:31:42;97145.34;;;23.60;51.59
8699;BME280;4386;51.236;6.742;2023-09-08T02:32:46;97140.25;;;23.58;51.85
8699;BME280;4386;51.236;6.742;2023-09-08T02:33:50;97144.84;;;23.58;52.09
8699;BME280;4386;51.236;6.742;2023-09-08T02:34:54;97147.03;;;23.56;52.38
8699;BME280;4386;51.236;6.742;2023-09-08T02:36:02;97137.91;;;23.52;52.43
8699;BME280;4386;51.236;6.742;2023-09-08T02:37:04;97139.56;;;23.48;52.38
8699;BME280;4386;51.236;6.742;2023-09-08T02:38:08;97133.66;;;23.46;52.82
8699;BME280;4386;51.236;6.742;2023-09-08T02:39:12;97142.34;;;23.43;52.61
8699;BME280;4386;51.236;6.742;2023-09-08T02:40:17;97132.63;;;23.42;52.89
8699;BME280;4386;51.236;6.742;2023-09-08T02:41:20;97137.47;;;23.40;52.72
8699;BME280;4386;51.236;6.742;2023-09-08T02:42:24;97140.16;;;23.40;52.99
8699;BME280;4386;51.236;6.742;2023-09-08T02:43:27;97145.06;;;23.38;53.15
8699;BME280;4386;51.236;6.742;2023-09-08T02:44:33;97143.44;;;23.36;53.10
8699;BME280;4386;51.236;6.742;2023-09-08T02:45:36;97133.44;;;23.37;53.09
8699;BME280;4386;51.236;6.742;2023-09-08T02:46:40;97145.56;;;23.40;53.16
8699;BME280;4386;51.236;6.742;2023-09-08T02:47:44;97142.63;;;23.41;53.11
8699;BME280;4386;51.236;6.742;2023-09-08T02:48:48;97142.34;;;23.43;53.08
8699;BME280;4386;51.236;6.742;2023-09-08T02:49:51;97146.38;;;23.45;52.90
8699;BME280;4386;51.236;6.742;2023-09-08T02:50:55;97147.16;;;23.46;52.70
8699;BME280;4386;51.236;6.742;2023-09-08T02:51:58;97150.38;;;23.48;52.94
8699;BME280;4386;51.236;6.742;2023-09-08T02:53:02;97146.59;;;23.49;52.89
8699;BME280;4386;51.236;6.742;2023-09-08T02:54:06;97141.19;;;23.49;53.00
8699;BME280;4386;51.236;6.742;2023-09-08T02:55:10;97137.38;;;23.50;53.11
8699;BME280;4386;51.236;6.742;2023-09-08T02:56:13;97138.97;;;23.51;53.23
8699;BME280;4386;51.236;6.742;2023-09-08T02:57:17;97144.38;;;23.51;53.24
8699;BME280;4386;51.236;6.742;2023-09-08T02:58:20;97137.59;;;23.53;52.98
8699;BME280;4386;51.236;6.742;2023-09-08T02:59:23;97140.28;;;23.53;53.28
8699;BME280;4386;51.236;6.742;2023-09-08T03:00:29;97143.00;;;23.53;52.95
8699;BME280;4386;51.236;6.742;2023-09-08T03:01:33;97141.91;;;23.54;53.03
8699;BME280;4386;51.236;6.742;2023-09-08T03:02:37;97141.91;;;23.54;52.79
8699;BME280;4386;51.236;6.742;2023-09-08T03:03:40;97146.00;;;23.52;53.07
8699;BME280;4386;51.236;6.742;2023-09-08T03:04:45;97141.69;;;23.51;53.11
8699;BME280;4386;51.236;6.742;2023-09-08T03:05:53;97141.19;;;23.49;52.86
8699;BME280;4386;51.236;6.742;2023-09-08T03:06:59;97139.56;;;23.48;53.03
8699;BME280;4386;51.236;6.742;2023-09-08T03:10:10;97139.56;;;23.48;53.03
8699;BME280;4386;51.236;6.742;2023-09-08T03:12:17;97137.94;;;23.47;53.16
8699;BME280;4386;51.236;6.742;2023-09-08T03:13:21;97139.06;;;23.46;53.05
8699;BME280;4386;51.236;6.742;2023-09-08T03:14:24;97147.75;;;23.43;53.42
8699;BME280;4386;51.236;6.742;2023-09-08T03:15:27;97145.06;;;23.43;53.35
8699;BME280;4386;51.236;6.742;2023-09-08T03:16:32;97142.34;;;23.43;53.16
8699;BME280;4386;51.236;6.742;2023-09-08T03:17:36;97142.03;;;23.44;53.19
8699;BME280;4386;51.236;6.742;2023-09-08T03:18:39;97146.88;;;23.47;53.26
8699;BME280;4386;51.236;6.742;2023-09-08T03:19:45;97138.75;;;23.47;53.16
8699;BME280;4386;51.236;6.742;2023-09-08T03:20:48;97139.56;;;23.48;53.19
8699;BME280;4386;51.236;6.742;2023-09-08T03:21:52;97141.19;;;23.49;53.24
8699;BME280;4386;51.236;6.742;2023-09-08T03:22:56;97138.97;;;23.51;53.17
8699;BME280;4386;51.236;6.742;2023-09-08T03:24:00;97142.19;;;23.53;52.92
8699;BME280;4386;51.236;6.742;2023-09-08T03:25:03;97134.88;;;23.53;52.96
8699;BME280;4386;51.236;6.742;2023-09-08T03:26:09;97146.50;;;23.54;53.17
8699;BME280;4386;51.236;6.742;2023-09-08T03:27:13;97140.28;;;23.53;53.01
8699;BME280;4386;51.236;6.742;2023-09-08T03:28:18;97141.91;;;23.54;53.08
8699;BME280;4386;51.236;6.742;2023-09-08T03:29:22;97149.75;;;23.56;52.87
8699;BME280;4386;51.236;6.742;2023-09-08T03:30:26;97139.44;;;23.58;52.55
8699;BME280;4386;51.236;6.742;2023-09-08T03:31:31;97137.53;;;23.58;52.50
8699;BME280;4386;51.236;6.742;2023-09-08T03:32:36;97144.25;;;23.61;52.72
8699;BME280;4386;51.236;6.742;2023-09-08T03:33:39;97143.97;;;23.62;52.54
8699;BME280;4386;51.236;6.742;2023-09-08T03:34:45;97145.28;;;23.65;52.66
8699;BME280;4386;51.236;6.742;2023-09-08T03:35:48;97145.56;;;23.63;52.44
8699;BME280;4386;51.236;6.742;2023-09-08T03:36:53;97148.28;;;23.63;52.70
8699;BME280;4386;51.236;6.742;2023-09-08T03:37:57;97141.78;;;23.64;52.75
8699;BME280;4386;51.236;6.742;2023-09-08T03:39:00;97144.47;;;23.64;53.07
8699;BME280;4386;51.236;6.742;2023-09-08T03:40:05;97146.38;;;23.64;52.50
8699;BME280;4386;51.236;6.742;2023-09-08T03:41:09;97146.09;;;23.65;52.47
8699;BME280;4386;51.236;6.742;2023-09-08T03:42:13;97152.28;;;23.66;52.47
8699;BME280;4386;51.236;6.742;2023-09-08T03:43:16;97140.38;;;23.67;52.79
8699;BME280;4386;51.236;6.742;2023-09-08T03:44:20;97144.69;;;23.68;52.40
8699;BME280;4386;51.236;6.742;2023-09-08T03:45:23;97140.38;;;23.67;52.36
8699;BME280;4386;51.236;6.742;2023-09-08T03:46:27;97137.69;;;23.67;52.58
8699;BME280;4386;51.236;6.742;2023-09-08T03:47:31;97139.88;;;23.65;52.57
8699;BME280;4386;51.236;6.742;2023-09-08T03:48:35;97132.84;;;23.64;52.59
8699;BME280;4386;51.236;6.742;2023-09-08T03:49:38;97134.47;;;23.65;52.70
8699;BME280;4386;51.236;6.742;2023-09-08T03:50:42;97132.56;;;23.65;52.57
8699;BME280;4386;51.236;6.742;2023-09-08T03:51:47;97133.34;;;23.66;52.68
8699;BME280;4386;51.236;6.742;2023-09-08T03:52:52;97136.06;;;23.66;52.57
8699;BME280;4386;51.236;6.742;2023-09-08T03:53:55;97132.25;;;23.67;52.61
8699;BME280;4386;51.236;6.742;2023-09-08T03:55:00;97127.66;;;23.67;52.71
8699;BME280;4386;51.236;6.742;2023-09-08T03:56:03;97126.84;;;23.67;52.71
8699;BME280;4386;51.236;6.742;2023-09-08T03:57:07;97126.84;;;23.67;52.68
8699;BME280;4386;51.236;6.742;2023-09-08T03:58:10;97140.69;;;23.65;53.10
8699;BME280;4386;51.236;6.742;2023-09-08T03:59:14;97129.06;;;23.65;52.92
8699;BME280;4386;51.236;6.742;2023-09-08T04:00:17;97134.47;;;23.65;53.08
8699;BME280;4386;51.236;6.742;2023-09-08T04:01:24;97132.84;;;23.64;52.87
8699;BME280;4386;51.236;6.742;2023-09-08T04:02:27;97136.38;;;23.64;53.00
8699;BME280;4386;51.236;6.742;2023-09-08T04:03:32;97134.47;;;23.65;52.87
8699;BME280;4386;51.236;6.742;2023-09-08T04:04:37;97129.06;;;23.65;53.10
8699;BME280;4386;51.236;6.742;2023-09-08T04:05:39;97130.16;;;23.64;53.31
8699;BME280;4386;51.236;6.742;2023-09-08T04:06:43;97133.44;;;23.61;53.42
8699;BME280;4386;51.236;6.742;2023-09-08T04:07:46;97138.34;;;23.59;53.41
8699;BME280;4386;51.236;6.742;2023-09-08T04:08:50;97137.81;;;23.57;53.54
8699;BME280;4386;51.236;6.742;2023-09-08T04:09:53;97134.59;;;23.55;53.64
8699;BME280;4386;51.236;6.742;2023-09-08T04:10:56;97139.22;;;23.54;53.43
8699;BME280;4386;51.236;6.742;2023-09-08T04:12:01;97141.09;;;23.54;53.53
8699;BME280;4386;51.236;6.742;2023-09-08T04:13:04;97144.63;;;23.54;53.41
8699;BME280;4386;51.236;6.742;2023-09-08T04:14:09;97143.81;;;23.54;53.41
8699;BME280;4386;51.236;6.742;2023-09-08T04:15:13;97140.00;;;23.55;53.58
8699;BME280;4386;51.236;6.742;2023-09-08T04:16:19;97150.28;;;23.53;53.32
8699;BME280;4386;51.236;6.742;2023-09-08T04:17:23;97158.41;;;23.53;53.45
8699;BME280;4386;51.236;6.742;2023-09-08T04:18:27;97173.09;;;23.47;54.03
8699;BME280;4386;51.236;6.742;2023-09-08T04:19:31;97155.88;;;23.38;54.19
8699;BME280;4386;51.236;6.742;2023-09-08T04:20:34;97157.03;;;23.31;54.39
8699;BME280;4386;51.236;6.742;2023-09-08T04:21:38;97162.53;;;23.26;54.23
8699;BME280;4386;51.236;6.742;2023-09-08T04:22:41;97161.19;;;23.24;54.48
8699;BME280;4386;51.236;6.742;2023-09-08T04:23:45;97160.38;;;23.23;54.72
8699;BME280;4386;51.236;6.742;2023-09-08T04:24:49;97160.38;;;23.23;54.66
8699;BME280;4386;51.236;6.742;2023-09-08T04:25:53;97150.38;;;23.24;54.68
8699;BME280;4386;51.236;6.742;2023-09-08T04:26:56;97156.59;;;23.24;54.73
8699;BME280;4386;51.236;6.742;2023-09-08T04:28:00;97158.19;;;23.25;54.50
8699;BME280;4386;51.236;6.742;2023-09-08T04:29:03;97159.00;;;23.26;54.64
8699;BME280;4386;51.236;6.742;2023-09-08T04:30:08;97158.19;;;23.25;54.68
8699;BME280;4386;51.236;6.742;2023-09-08T04:31:11;97157.16;;;23.21;54.68
8699;BME280;4386;51.236;6.742;2023-09-08T04:32:15;97162.34;;;23.18;54.81
8699;BME280;4386;51.236;6.742;2023-09-08T04:33:18;97150.72;;;23.17;54.76
8699;BME280;4386;51.236;6.742;2023-09-08T04:34:22;97145.06;;;23.14;55.06
8699;BME280;4386;51.236;6.742;2023-09-08T04:35:59;97155.09;;;23.13;54.95
8699;BME280;4386;51.236;6.742;2023-09-08T04:37:36;97160.50;;;23.13;54.59
8699;BME280;4386;51.236;6.742;2023-09-08T04:40:26;97166.66;;;23.19;54.38
8699;BME280;4386;51.236;6.742;2023-09-08T04:42:45;97152.44;;;23.08;54.27
8699;BME280;4386;51.236;6.742;2023-09-08T04:44:23;97151.97;;;23.01;54.66
8699;BME280;4386;51.236;6.742;2023-09-08T04:45:58;97153.59;;;23.02;54.87
8699;BME280;4386;51.236;6.742;2023-09-08T04:47:16;97161.13;;;23.05;54.74
8699;BME280;4386;51.236;6.742;2023-09-08T04:48:19;97157.84;;;23.08;54.55
8699;BME280;4386;51.236;6.742;2023-09-08T04:49:23;97155.88;;;23.14;54.53
8699;BME280;4386;51.236;6.742;2023-09-08T04:50:26;97153.41;;;23.17;54.27
8699;BME280;4386;51.236;6.742;2023-09-08T04:51:31;97151.75;;;23.21;54.21
8699;BME280;4386;51.236;6.742;2023-09-08T04:52:34;97151.19;;;23.24;54.25
8699;BME280;4386;51.236;6.742;2023-09-08T04:53:38;97153.03;;;23.29;53.95
8699;BME280;4386;51.236;6.742;2023-09-08T04:54:41;97154.34;;;23.31;53.98
8699;BME280;4386;51.236;6.742;2023-09-08T04:55:45;97146.72;;;23.33;53.86
8699;BME280;4386;51.236;6.742;2023-09-08T04:56:52;97154.56;;;23.35;53.51
8699;BME280;4386;51.236;6.742;2023-09-08T04:58:01;97161.28;;;23.38;53.67
8699;BME280;4386;51.236;6.742;2023-09-08T04:59:05;97156.38;;;23.40;53.66
8699;BME280;4386;51.236;6.742;2023-09-08T05:00:09;97155.06;;;23.42;53.50
8699;BME280;4386;51.236;6.742;2023-09-08T05:01:14;97151.22;;;23.43;53.66
8699;BME280;4386;51.236;6.742;2023-09-08T05:02:17;97145.81;;;23.43;53.54
8699;BME280;4386;51.236;6.742;2023-09-08T05:03:22;97147.16;;;23.46;53.56
8699;BME280;4386;51.236;6.742;2023-09-08T05:04:25;97152.56;;;23.46;53.52
8699;BME280;4386;51.236;6.742;2023-09-08T05:05:29;97146.06;;;23.47;53.43
8699;BME280;4386;51.236;6.742;2023-09-08T05:06:34;97141.19;;;23.49;53.26
8699;BME280;4386;51.236;6.742;2023-09-08T05:07:38;97138.16;;;23.50;53.24
8699;BME280;4386;51.236;6.742;2023-09-08T05:08:41;97149.78;;;23.51;53.17
8699;BME280;4386;51.236;6.742;2023-09-08T05:09:46;97153.31;;;23.51;53.37
8699;BME280;4386;51.236;6.742;2023-09-08T05:10:49;97156.81;;;23.52;53.08
8699;BME280;4386;51.236;6.742;2023-09-08T05:11:53;97159.22;;;23.53;53.12
8699;BME280;4386;51.236;6.742;2023-09-08T05:12:57;97152.44;;;23.56;53.24
8699;BME280;4386;51.236;6.742;2023-09-08T05:14:01;97156.75;;;23.57;53.18
8699;BME280;4386;51.236;6.742;2023-09-08T05:15:05;97155.34;;;23.59;53.02
8699;BME280;4386;51.236;6.742;2023-09-08T05:16:13;97150.75;;;23.60;52.99
8699;BME280;4386;51.236;6.742;2023-09-08T05:17:17;97158.84;;;23.60;53.08
8699;BME280;4386;51.236;6.742;2023-09-08T05:18:21;97161.28;;;23.61;53.26
8699;BME280;4386;51.236;6.742;2023-09-08T05:19:26;97162.09;;;23.62;53.28
8699;BME280;4386;51.236;6.742;2023-09-08T05:20:30;97157.50;;;23.62;53.26
8699;BME280;4386;51.236;6.742;2023-09-08T05:21:36;97156.09;;;23.65;53.00
8699;BME280;4386;51.236;6.742;2023-09-08T05:22:40;97156.91;;;23.65;53.28
8699;BME280;4386;51.236;6.742;2023-09-08T05:23:44;97166.34;;;23.68;53.13
8699;BME280;4386;51.236;6.742;2023-09-08T05:24:47;97158.22;;;23.68;53.23
8699;BME280;4386;51.236;6.742;2023-09-08T05:25:51;97163.31;;;23.69;53.10
8699;BME280;4386;51.236;6.742;2023-09-08T05:26:54;97156.78;;;23.75;53.05
8699;BME280;4386;51.236;6.742;2023-09-08T05:27:58;97163.19;;;23.79;53.15
8699;BME280;4386;51.236;6.742;2023-09-08T05:29:03;97155.00;;;23.84;53.10
8699;BME280;4386;51.236;6.742;2023-09-08T05:30:07;97161.66;;;23.92;52.99
8699;BME280;4386;51.236;6.742;2023-09-08T05:31:10;97165.31;;;24.01;52.64
8699;BME280;4386;51.236;6.742;2023-09-08T05:32:15;97161.91;;;24.14;52.48
8699;BME280;4386;51.236;6.742;2023-09-08T05:33:17;97166.25;;;24.29;52.30
8699;BME280;4386;51.236;6.742;2023-09-08T05:34:22;97157.91;;;24.44;51.96
8699;BME280;4386;51.236;6.742;2023-09-08T05:35:24;97170.38;;;24.59;51.52
8699;BME280;4386;51.236;6.742;2023-09-08T05:36:28;97176.66;;;24.73;51.11
8699;BME280;4386;51.236;6.742;2023-09-08T05:37:33;97176.91;;;24.90;50.84
8699;BME280;4386;51.236;6.742;2023-09-08T05:38:37;97176.09;;;25.03;50.37
8699;BME280;4386;51.236;6.742;2023-09-08T05:39:40;97173.91;;;25.19;50.02
8699;BME280;4386;51.236;6.742;2023-09-08T05:40:44;97172.31;;;25.31;50.04
8699;BME280;4386;51.236;6.742;2023-09-08T05:41:47;97177.72;;;25.45;50.05
8699;BME280;4386;51.236;6.742;2023-09-08T05:42:51;97173.72;;;25.56;49.82
8699;BME280;4386;51.236;6.742;2023-09-08T05:43:54;97178.66;;;25.68;49.05
8699;BME280;4386;51.236;6.742;2023-09-08T05:44:58;97174.59;;;25.79;48.58
8699;BME280;4386;51.236;6.742;2023-09-08T05:46:01;97168.44;;;25.87;48.54
8699;BME280;4386;51.236;6.742;2023-09-08T05:47:07;97170.63;;;25.99;48.70
8699;BME280;4386;51.236;6.742;2023-09-08T05:48:10;97176.63;;;26.09;48.69
8699;BME280;4386;51.236;6.742;2023-09-08T05:49:15;97179.63;;;26.21;48.44
8699;BME280;4386;51.236;6.742;2023-09-08T05:50:18;97176.66;;;26.31;47.84
8699;BME280;4386;51.236;6.742;2023-09-08T05:51:20;97176.94;;;26.44;47.57
8699;BME280;4386;51.236;6.742;2023-09-08T05:52:25;97178.28;;;26.55;47.29
8699;BME280;4386;51.236;6.742;2023-09-08T05:53:31;97178.03;;;26.65;47.33
8699;BME280;4386;51.236;6.742;2023-09-08T05:54:35;97173.44;;;26.74;47.21
8699;BME280;4386;51.236;6.742;2023-09-08T05:55:38;97178.97;;;26.82;46.55
8699;BME280;4386;51.236;6.742;2023-09-08T05:56:42;97181.72;;;26.91;46.18
8699;BME280;4386;51.236;6.742;2023-09-08T05:57:45;97182.56;;;27.00;46.61
8699;BME280;4386;51.236;6.742;2023-09-08T05:58:49;97180.19;;;27.07;46.33